sensor_id;sensor_type;location;lat;lon;timestamp;P1;durP1;ratioP1;P2;durP2;ratioP2
66575;SDS011;53428;47.686;16.584;2023-05-10T00:00:06;5.82;;;3.55;;
66575;SDS011;53428;47.686;16.584;2023-05-10T00:05:06;4.65;;;3.33;;
66575;SDS011;53428;47.686;16.584;2023-05-10T00:10:06;6.43;;;3.72;;
66575;SDS011;53428;47.686;16.584;2023-05-10T00:15:06;10.07;;;3.17;;
66575;SDS011;53428;47.686;16.584;2023-05-10T00:20:06;3.67;;;3.00;;
66575;SDS011;53428;47.686;16.584;2023-05-10T00:25:06;4.10;;;3.60;;
66575;SDS011;53428;47.686;16.584;2023-05-10T00:30:06;7.70;;;4.00;;
66575;SDS011;53428;47.686;16.584;2023-05-10T00:35:06;7.32;;;4.10;;
66575;SDS011;53428;47.686;16.584;2023-05-10T00:40:05;11.80;;;2.92;;
66575;SDS011;53428;47.686;16.584;2023-05-10T00:45:06;6.75;;;3.25;;
66575;SDS011;53428;47.686;16.584;2023-05-10T00:50:06;6.55;;;3.38;;
66575;SDS011;53428;47.686;16.584;2023-05-10T00:55:06;8.02;;;3.55;;
66575;SDS011;53428;47.686;16.584;2023-05-10T01:00:06;4.25;;;3.05;;
66575;SDS011;53428;47.686;16.584;2023-05-10T01:05:05;5.63;;;3.33;;
66575;SDS011;53428;47.686;16.584;2023-05-10T01:10:06;4.60;;;3.28;;
66575;SDS011;53428;47.686;16.584;2023-05-10T01:15:08;6.07;;;3.78;;
66575;SDS011;53428;47.686;16.584;2023-05-10T01:20:09;6.43;;;4.18;;
66575;SDS011;53428;47.686;16.584;2023-05-10T01:30:39;8.98;;;3.70;;
66575;SDS011;53428;47.686;16.584;2023-05-10T01:35:42;6.30;;;2.92;;
66575;SDS011;53428;47.686;16.584;2023-05-10T01:40:56;5.65;;;3.90;;
66575;SDS011;53428;47.686;16.584;2023-05-10T01:46:09;7.63;;;3.45;;
66575;SDS011;53428;47.686;16.584;2023-05-10T01:51:16;5.28;;;3.45;;
66575;SDS011;53428;47.686;16.584;2023-05-10T01:56:21;4.43;;;3.10;;
66575;SDS011;53428;47.686;16.584;2023-05-10T02:01:25;6.00;;;3.47;;
66575;SDS011;53428;47.686;16.584;2023-05-10T02:06:25;6.30;;;2.92;;
66575;SDS011;53428;47.686;16.584;2023-05-10T02:11:26;5.03;;;3.03;;
66575;SDS011;53428;47.686;16.584;2023-05-10T02:16:27;12.77;;;3.03;;
66575;SDS011;53428;47.686;16.584;2023-05-10T02:21:29;3.10;;;2.45;;
66575;SDS011;53428;47.686;16.584;2023-05-10T02:26:29;6.63;;;2.97;;
66575;SDS011;53428;47.686;16.584;2023-05-10T02:31:32;4.57;;;2.85;;
66575;SDS011;53428;47.686;16.584;2023-05-10T02:36:32;8.63;;;3.17;;
66575;SDS011;53428;47.686;16.584;2023-05-10T02:41:32;9.70;;;3.17;;
66575;SDS011;53428;47.686;16.584;2023-05-10T02:46:32;6.82;;;2.80;;
66575;SDS011;53428;47.686;16.584;2023-05-10T02:51:31;3.80;;;2.90;;
66575;SDS011;53428;47.686;16.584;2023-05-10T02:56:35;6.43;;;3.67;;
66575;SDS011;53428;47.686;16.584;2023-05-10T03:01:41;9.00;;;3.70;;
66575;SDS011;53428;47.686;16.584;2023-05-10T03:06:40;6.32;;;3.17;;
66575;SDS011;53428;47.686;16.584;2023-05-10T03:11:55;4.78;;;3.58;;
66575;SDS011;53428;47.686;16.584;2023-05-10T03:17:11;11.90;;;5.03;;
66575;SDS011;53428;47.686;16.584;2023-05-10T03:22:21;5.75;;;3.20;;
66575;SDS011;53428;47.686;16.584;2023-05-10T03:27:25;5.15;;;3.42;;
66575;SDS011;53428;47.686;16.584;2023-05-10T03:32:26;7.57;;;4.63;;
66575;SDS011;53428;47.686;16.584;2023-05-10T03:37:28;10.27;;;4.57;;
66575;SDS011;53428;47.686;16.584;2023-05-10T03:42:28;8.80;;;4.70;;
66575;SDS011;53428;47.686;16.584;2023-05-10T03:47:27;7.05;;;4.43;;
66575;SDS011;53428;47.686;16.584;2023-05-10T03:52:28;9.15;;;4.70;;
66575;SDS011;53428;47.686;16.584;2023-05-10T03:57:27;14.00;;;6.10;;
66575;SDS011;53428;47.686;16.584;2023-05-10T04:02:27;12.20;;;4.60;;
66575;SDS011;53428;47.686;16.584;2023-05-10T04:07:26;13.40;;;5.10;;
66575;SDS011;53428;47.686;16.584;2023-05-10T04:12:25;6.80;;;3.35;;
66575;SDS011;53428;47.686;16.584;2023-05-10T04:17:24;6.57;;;4.38;;
66575;SDS011;53428;47.686;16.584;2023-05-10T04:22:24;6.82;;;4.00;;
66575;SDS011;53428;47.686;16.584;2023-05-10T04:27:23;7.57;;;3.80;;
66575;SDS011;53428;47.686;16.584;2023-05-10T04:32:22;9.18;;;4.07;;
66575;SDS011;53428;47.686;16.584;2023-05-10T04:37:22;7.70;;;4.43;;
66575;SDS011;53428;47.686;16.584;2023-05-10T04:42:21;11.63;;;4.80;;
66575;SDS011;53428;47.686;16.584;2023-05-10T04:47:21;7.25;;;4.32;;
66575;SDS011;53428;47.686;16.584;2023-05-10T04:52:20;7.50;;;4.68;;
66575;SDS011;53428;47.686;16.584;2023-05-10T04:57:19;7.22;;;4.93;;
66575;SDS011;53428;47.686;16.584;2023-05-10T05:02:18;7.38;;;4.25;;
66575;SDS011;53428;47.686;16.584;2023-05-10T05:07:18;8.88;;;4.43;;
66575;SDS011;53428;47.686;16.584;2023-05-10T05:12:17;10.48;;;4.18;;
66575;SDS011;53428;47.686;16.584;2023-05-10T05:17:16;10.55;;;5.18;;
66575;SDS011;53428;47.686;16.584;2023-05-10T05:22:16;12.63;;;6.45;;
66575;SDS011;53428;47.686;16.584;2023-05-10T05:27:15;9.60;;;5.22;;
66575;SDS011;53428;47.686;16.584;2023-05-10T05:32:14;6.13;;;3.85;;
66575;SDS011;53428;47.686;16.584;2023-05-10T05:37:14;10.77;;;4.45;;
66575;SDS011;53428;47.686;16.584;2023-05-10T05:42:14;5.30;;;4.28;;
66575;SDS011;53428;47.686;16.584;2023-05-10T05:47:15;10.80;;;4.68;;
66575;SDS011;53428;47.686;16.584;2023-05-10T05:52:14;6.65;;;3.85;;
66575;SDS011;53428;47.686;16.584;2023-05-10T05:57:15;5.82;;;4.00;;
66575;SDS011;53428;47.686;16.584;2023-05-10T06:02:14;6.28;;;3.88;;
66575;SDS011;53428;47.686;16.584;2023-05-10T06:07:13;5.10;;;3.85;;
66575;SDS011;53428;47.686;16.584;2023-05-10T06:12:12;7.82;;;4.03;;
66575;SDS011;53428;47.686;16.584;2023-05-10T06:17:11;7.53;;;4.15;;
66575;SDS011;53428;47.686;16.584;2023-05-10T06:22:11;7.57;;;5.47;;
66575;SDS011;53428;47.686;16.584;2023-05-10T06:27:10;7.38;;;4.68;;
66575;SDS011;53428;47.686;16.584;2023-05-10T06:32:09;7.47;;;4.63;;
66575;SDS011;53428;47.686;16.584;2023-05-10T06:37:08;7.72;;;4.65;;
66575;SDS011;53428;47.686;16.584;2023-05-10T06:42:08;5.75;;;4.28;;
66575;SDS011;53428;47.686;16.584;2023-05-10T06:47:07;7.75;;;5.32;;
66575;SDS011;53428;47.686;16.584;2023-05-10T06:52:06;8.25;;;5.28;;
66575;SDS011;53428;47.686;16.584;2023-05-10T06:57:06;9.63;;;6.05;;
66575;SDS011;53428;47.686;16.584;2023-05-10T07:02:05;8.75;;;6.13;;
66575;SDS011;53428;47.686;16.584;2023-05-10T07:07:05;8.80;;;6.07;;
66575;SDS011;53428;47.686;16.584;2023-05-10T07:12:04;11.00;;;4.97;;
66575;SDS011;53428;47.686;16.584;2023-05-10T07:17:03;9.30;;;6.28;;
66575;SDS011;53428;47.686;16.584;2023-05-10T07:22:03;14.13;;;7.97;;
66575;SDS011;53428;47.686;16.584;2023-05-10T07:27:02;10.93;;;6.35;;
66575;SDS011;53428;47.686;16.584;2023-05-10T07:32:02;10.25;;;6.20;;
66575;SDS011;53428;47.686;16.584;2023-05-10T07:37:02;10.32;;;6.97;;
66575;SDS011;53428;47.686;16.584;2023-05-10T07:42:01;10.98;;;5.80;;
66575;SDS011;53428;47.686;16.584;2023-05-10T07:47:01;9.18;;;5.50;;
66575;SDS011;53428;47.686;16.584;2023-05-10T07:52:02;9.07;;;5.35;;
66575;SDS011;53428;47.686;16.584;2023-05-10T07:57:02;8.32;;;5.00;;
66575;SDS011;53428;47.686;16.584;2023-05-10T08:02:01;11.15;;;4.88;;
66575;SDS011;53428;47.686;16.584;2023-05-10T08:07:00;10.98;;;5.00;;
66575;SDS011;53428;47.686;16.584;2023-05-10T08:12:00;11.18;;;4.22;;
66575;SDS011;53428;47.686;16.584;2023-05-10T08:16:59;4.70;;;3.85;;
66575;SDS011;53428;47.686;16.584;2023-05-10T08:21:59;7.18;;;4.95;;
66575;SDS011;53428;47.686;16.584;2023-05-10T08:26:58;6.03;;;3.97;;
66575;SDS011;53428;47.686;16.584;2023-05-10T08:31:57;4.88;;;3.38;;
66575;SDS011;53428;47.686;16.584;2023-05-10T08:36:56;4.07;;;2.97;;
66575;SDS011;53428;47.686;16.584;2023-05-10T08:41:55;5.10;;;3.17;;
66575;SDS011;53428;47.686;16.584;2023-05-10T08:46:58;4.20;;;2.83;;
66575;SDS011;53428;47.686;16.584;2023-05-10T08:52:02;4.22;;;3.38;;
66575;SDS011;53428;47.686;16.584;2023-05-10T08:57:04;4.95;;;3.42;;
66575;SDS011;53428;47.686;16.584;2023-05-10T09:02:03;7.38;;;2.83;;
66575;SDS011;53428;47.686;16.584;2023-05-10T09:07:04;3.67;;;3.05;;
66575;SDS011;53428;47.686;16.584;2023-05-10T09:12:03;7.18;;;2.83;;
66575;SDS011;53428;47.686;16.584;2023-05-10T09:17:03;4.30;;;2.28;;
66575;SDS011;53428;47.686;16.584;2023-05-10T09:22:03;5.50;;;2.20;;
66575;SDS011;53428;47.686;16.584;2023-05-10T09:27:03;3.60;;;1.75;;
66575;SDS011;53428;47.686;16.584;2023-05-10T09:32:02;2.10;;;1.90;;
66575;SDS011;53428;47.686;16.584;2023-05-10T09:37:02;3.80;;;2.15;;
66575;SDS011;53428;47.686;16.584;2023-05-10T09:42:04;2.35;;;1.98;;
66575;SDS011;53428;47.686;16.584;2023-05-10T09:47:07;2.00;;;1.67;;
66575;SDS011;53428;47.686;16.584;2023-05-10T09:52:07;2.60;;;2.13;;
66575;SDS011;53428;47.686;16.584;2023-05-10T09:57:06;1.98;;;1.80;;
66575;SDS011;53428;47.686;16.584;2023-05-10T10:02:19;8.27;;;1.90;;
66575;SDS011;53428;47.686;16.584;2023-05-10T10:07:22;2.78;;;2.00;;
66575;SDS011;53428;47.686;16.584;2023-05-10T10:12:23;2.40;;;2.20;;
66575;SDS011;53428;47.686;16.584;2023-05-10T10:17:23;2.58;;;1.80;;
66575;SDS011;53428;47.686;16.584;2023-05-10T10:22:26;3.85;;;1.70;;
66575;SDS011;53428;47.686;16.584;2023-05-10T10:27:34;3.33;;;1.95;;
66575;SDS011;53428;47.686;16.584;2023-05-10T10:38:07;3.28;;;1.70;;
66575;SDS011;53428;47.686;16.584;2023-05-10T10:43:20;2.67;;;1.50;;
66575;SDS011;53428;47.686;16.584;2023-05-10T10:48:24;8.60;;;2.42;;
66575;SDS011;53428;47.686;16.584;2023-05-10T10:53:26;1.55;;;1.40;;
66575;SDS011;53428;47.686;16.584;2023-05-10T10:58:30;2.47;;;1.30;;
66575;SDS011;53428;47.686;16.584;2023-05-10T11:03:33;1.75;;;0.98;;
66575;SDS011;53428;47.686;16.584;2023-05-10T11:08:33;2.92;;;1.25;;
66575;SDS011;53428;47.686;16.584;2023-05-10T11:13:41;1.33;;;1.23;;
66575;SDS011;53428;47.686;16.584;2023-05-10T11:18:53;1.70;;;1.58;;
66575;SDS011;53428;47.686;16.584;2023-05-10T11:23:53;2.50;;;1.23;;
66575;SDS011;53428;47.686;16.584;2023-05-10T11:28:57;1.40;;;1.30;;
66575;SDS011;53428;47.686;16.584;2023-05-10T11:34:00;3.65;;;1.50;;
66575;SDS011;53428;47.686;16.584;2023-05-10T11:44:02;1.25;;;1.20;;
66575;SDS011;53428;47.686;16.584;2023-05-10T11:49:01;5.72;;;1.33;;
66575;SDS011;53428;47.686;16.584;2023-05-10T11:54:06;1.42;;;1.33;;
66575;SDS011;53428;47.686;16.584;2023-05-10T11:59:08;2.72;;;1.55;;
66575;SDS011;53428;47.686;16.584;2023-05-10T12:04:07;3.97;;;1.85;;
66575;SDS011;53428;47.686;16.584;2023-05-10T12:09:07;1.70;;;1.38;;
66575;SDS011;53428;47.686;16.584;2023-05-10T12:14:07;6.22;;;1.30;;
66575;SDS011;53428;47.686;16.584;2023-05-10T12:19:07;1.92;;;1.50;;
66575;SDS011;53428;47.686;16.584;2023-05-10T12:24:06;5.68;;;1.70;;
66575;SDS011;53428;47.686;16.584;2023-05-10T12:29:16;1.73;;;1.52;;
66575;SDS011;53428;47.686;16.584;2023-05-10T12:39:41;9.32;;;1.90;;
66575;SDS011;53428;47.686;16.584;2023-05-10T12:44:42;2.13;;;1.45;;
66575;SDS011;53428;47.686;16.584;2023-05-10T12:49:41;6.47;;;1.92;;
66575;SDS011;53428;47.686;16.584;2023-05-10T12:54:41;2.92;;;1.60;;
66575;SDS011;53428;47.686;16.584;2023-05-10T12:59:40;2.63;;;1.52;;
66575;SDS011;53428;47.686;16.584;2023-05-10T13:04:39;3.70;;;1.80;;
66575;SDS011;53428;47.686;16.584;2023-05-10T13:09:39;5.55;;;1.40;;
66575;SDS011;53428;47.686;16.584;2023-05-10T13:14:38;3.22;;;1.52;;
66575;SDS011;53428;47.686;16.584;2023-05-10T13:19:39;5.10;;;1.50;;
66575;SDS011;53428;47.686;16.584;2023-05-10T13:24:39;2.20;;;1.30;;
66575;SDS011;53428;47.686;16.584;2023-05-10T13:29:38;3.05;;;1.30;;
66575;SDS011;53428;47.686;16.584;2023-05-10T13:34:38;4.20;;;1.52;;
66575;SDS011;53428;47.686;16.584;2023-05-10T13:39:37;4.50;;;1.60;;
66575;SDS011;53428;47.686;16.584;2023-05-10T13:44:37;1.73;;;1.02;;
66575;SDS011;53428;47.686;16.584;2023-05-10T13:49:37;1.27;;;1.17;;
66575;SDS011;53428;47.686;16.584;2023-05-10T13:54:37;2.55;;;1.20;;
66575;SDS011;53428;47.686;16.584;2023-05-10T13:59:37;1.40;;;1.30;;
66575;SDS011;53428;47.686;16.584;2023-05-10T14:04:36;1.80;;;1.17;;
66575;SDS011;53428;47.686;16.584;2023-05-10T14:09:36;1.40;;;1.30;;
66575;SDS011;53428;47.686;16.584;2023-05-10T14:14:35;1.20;;;1.10;;
66575;SDS011;53428;47.686;16.584;2023-05-10T14:19:35;1.75;;;1.23;;
66575;SDS011;53428;47.686;16.584;2023-05-10T14:24:34;1.35;;;1.05;;
66575;SDS011;53428;47.686;16.584;2023-05-10T14:29:34;3.17;;;1.23;;
66575;SDS011;53428;47.686;16.584;2023-05-10T14:34:33;4.72;;;1.80;;
66575;SDS011;53428;47.686;16.584;2023-05-10T14:39:33;1.90;;;1.58;;
66575;SDS011;53428;47.686;16.584;2023-05-10T14:44:33;1.67;;;1.13;;
66575;SDS011;53428;47.686;16.584;2023-05-10T14:49:32;5.72;;;1.27;;
66575;SDS011;53428;47.686;16.584;2023-05-10T14:54:31;6.13;;;2.15;;
66575;SDS011;53428;47.686;16.584;2023-05-10T14:59:32;1.63;;;1.45;;
66575;SDS011;53428;47.686;16.584;2023-05-10T15:04:31;8.18;;;1.80;;
66575;SDS011;53428;47.686;16.584;2023-05-10T15:09:31;2.33;;;1.30;;
66575;SDS011;53428;47.686;16.584;2023-05-10T15:14:30;1.63;;;1.23;;
66575;SDS011;53428;47.686;16.584;2023-05-10T15:19:30;2.50;;;1.73;;
66575;SDS011;53428;47.686;16.584;2023-05-10T15:24:29;6.45;;;1.60;;
66575;SDS011;53428;47.686;16.584;2023-05-10T15:29:28;4.07;;;1.55;;
66575;SDS011;53428;47.686;16.584;2023-05-10T15:34:28;1.10;;;1.10;;
66575;SDS011;53428;47.686;16.584;2023-05-10T15:39:27;1.50;;;1.38;;
66575;SDS011;53428;47.686;16.584;2023-05-10T15:44:27;9.70;;;2.35;;
66575;SDS011;53428;47.686;16.584;2023-05-10T15:49:26;2.05;;;1.40;;
66575;SDS011;53428;47.686;16.584;2023-05-10T15:54:25;2.40;;;1.50;;
66575;SDS011;53428;47.686;16.584;2023-05-10T15:59:25;2.83;;;1.42;;
66575;SDS011;53428;47.686;16.584;2023-05-10T16:04:24;4.93;;;1.83;;
66575;SDS011;53428;47.686;16.584;2023-05-10T16:09:24;5.85;;;4.18;;
66575;SDS011;53428;47.686;16.584;2023-05-10T16:14:23;1.98;;;1.65;;
66575;SDS011;53428;47.686;16.584;2023-05-10T16:19:23;1.70;;;1.30;;
66575;SDS011;53428;47.686;16.584;2023-05-10T16:24:22;6.95;;;1.80;;
66575;SDS011;53428;47.686;16.584;2023-05-10T16:29:21;9.70;;;1.58;;
66575;SDS011;53428;47.686;16.584;2023-05-10T16:34:20;2.00;;;1.80;;
66575;SDS011;53428;47.686;16.584;2023-05-10T16:39:22;3.97;;;2.15;;
66575;SDS011;53428;47.686;16.584;2023-05-10T16:44:21;5.05;;;1.80;;
66575;SDS011;53428;47.686;16.584;2023-05-10T16:49:20;3.20;;;1.80;;
66575;SDS011;53428;47.686;16.584;2023-05-10T16:54:20;8.57;;;1.70;;
66575;SDS011;53428;47.686;16.584;2023-05-10T16:59:20;4.57;;;2.63;;
66575;SDS011;53428;47.686;16.584;2023-05-10T17:04:19;5.55;;;1.77;;
66575;SDS011;53428;47.686;16.584;2023-05-10T17:09:18;2.88;;;1.60;;
66575;SDS011;53428;47.686;16.584;2023-05-10T17:14:18;2.08;;;1.50;;
66575;SDS011;53428;47.686;16.584;2023-05-10T17:19:17;2.17;;;1.88;;
66575;SDS011;53428;47.686;16.584;2023-05-10T17:24:16;3.33;;;1.80;;
66575;SDS011;53428;47.686;16.584;2023-05-10T17:29:16;3.40;;;1.70;;
66575;SDS011;53428;47.686;16.584;2023-05-10T17:34:15;4.35;;;2.83;;
66575;SDS011;53428;47.686;16.584;2023-05-10T17:39:14;4.30;;;1.50;;
66575;SDS011;53428;47.686;16.584;2023-05-10T17:44:14;6.30;;;2.15;;
66575;SDS011;53428;47.686;16.584;2023-05-10T17:49:13;3.38;;;2.22;;
66575;SDS011;53428;47.686;16.584;2023-05-10T17:54:13;4.30;;;2.33;;
66575;SDS011;53428;47.686;16.584;2023-05-10T17:59:12;4.40;;;2.15;;
66575;SDS011;53428;47.686;16.584;2023-05-10T18:04:12;6.53;;;2.67;;
66575;SDS011;53428;47.686;16.584;2023-05-10T18:09:11;9.77;;;4.22;;
66575;SDS011;53428;47.686;16.584;2023-05-10T18:14:10;5.75;;;3.45;;
66575;SDS011;53428;47.686;16.584;2023-05-10T18:19:10;6.95;;;2.80;;
66575;SDS011;53428;47.686;16.584;2023-05-10T18:24:10;10.07;;;3.00;;
66575;SDS011;53428;47.686;16.584;2023-05-10T18:29:09;4.43;;;2.53;;
66575;SDS011;53428;47.686;16.584;2023-05-10T18:34:08;7.50;;;2.45;;
66575;SDS011;53428;47.686;16.584;2023-05-10T18:39:11;10.55;;;3.17;;
66575;SDS011;53428;47.686;16.584;2023-05-10T18:44:11;5.50;;;2.25;;
66575;SDS011;53428;47.686;16.584;2023-05-10T18:49:10;9.10;;;2.85;;
66575;SDS011;53428;47.686;16.584;2023-05-10T18:54:10;9.02;;;3.10;;
66575;SDS011;53428;47.686;16.584;2023-05-10T18:59:09;6.30;;;3.15;;
66575;SDS011;53428;47.686;16.584;2023-05-10T19:04:10;5.45;;;2.47;;
66575;SDS011;53428;47.686;16.584;2023-05-10T19:09:09;5.20;;;3.03;;
66575;SDS011;53428;47.686;16.584;2023-05-10T19:14:09;10.90;;;2.60;;
66575;SDS011;53428;47.686;16.584;2023-05-10T19:19:10;4.07;;;3.00;;
66575;SDS011;53428;47.686;16.584;2023-05-10T19:24:10;3.80;;;2.80;;
66575;SDS011;53428;47.686;16.584;2023-05-10T19:29:09;4.18;;;2.33;;
66575;SDS011;53428;47.686;16.584;2023-05-10T19:34:09;3.38;;;2.40;;
66575;SDS011;53428;47.686;16.584;2023-05-10T19:39:08;2.70;;;2.25;;
66575;SDS011;53428;47.686;16.584;2023-05-10T19:44:08;3.40;;;2.45;;
66575;SDS011;53428;47.686;16.584;2023-05-10T19:49:08;2.45;;;2.03;;
66575;SDS011;53428;47.686;16.584;2023-05-10T19:54:07;6.38;;;3.15;;
66575;SDS011;53428;47.686;16.584;2023-05-10T19:59:07;16.58;;;6.30;;
66575;SDS011;53428;47.686;16.584;2023-05-10T20:04:07;9.30;;;4.38;;
66575;SDS011;53428;47.686;16.584;2023-05-10T20:09:07;6.20;;;2.88;;
66575;SDS011;53428;47.686;16.584;2023-05-10T20:14:07;4.97;;;2.70;;
66575;SDS011;53428;47.686;16.584;2023-05-10T20:19:07;2.65;;;2.13;;
66575;SDS011;53428;47.686;16.584;2023-05-10T20:24:07;5.40;;;2.72;;
66575;SDS011;53428;47.686;16.584;2023-05-10T20:29:06;6.50;;;2.40;;
66575;SDS011;53428;47.686;16.584;2023-05-10T20:34:07;4.03;;;2.50;;
66575;SDS011;53428;47.686;16.584;2023-05-10T20:39:06;10.65;;;2.92;;
66575;SDS011;53428;47.686;16.584;2023-05-10T20:44:07;4.93;;;3.00;;
66575;SDS011;53428;47.686;16.584;2023-05-10T20:49:07;8.55;;;2.60;;
66575;SDS011;53428;47.686;16.584;2023-05-10T20:54:07;6.75;;;2.72;;
66575;SDS011;53428;47.686;16.584;2023-05-10T20:59:06;6.43;;;2.95;;
66575;SDS011;53428;47.686;16.584;2023-05-10T21:04:05;4.60;;;3.22;;
66575;SDS011;53428;47.686;16.584;2023-05-10T21:09:05;6.13;;;2.83;;
66575;SDS011;53428;47.686;16.584;2023-05-10T21:14:04;4.13;;;2.67;;
66575;SDS011;53428;47.686;16.584;2023-05-10T21:19:03;8.95;;;3.03;;
66575;SDS011;53428;47.686;16.584;2023-05-10T21:24:05;3.03;;;2.47;;
66575;SDS011;53428;47.686;16.584;2023-05-10T21:29:04;3.63;;;2.63;;
66575;SDS011;53428;47.686;16.584;2023-05-10T21:34:04;8.85;;;3.40;;
66575;SDS011;53428;47.686;16.584;2023-05-10T21:39:04;4.25;;;3.03;;
66575;SDS011;53428;47.686;16.584;2023-05-10T21:44:03;5.60;;;2.47;;
66575;SDS011;53428;47.686;16.584;2023-05-10T21:49:03;2.95;;;2.65;;
66575;SDS011;53428;47.686;16.584;2023-05-10T21:54:02;2.88;;;2.40;;
66575;SDS011;53428;47.686;16.584;2023-05-10T21:59:02;6.18;;;2.65;;
66575;SDS011;53428;47.686;16.584;2023-05-10T22:04:01;10.45;;;4.28;;
66575;SDS011;53428;47.686;16.584;2023-05-10T22:09:00;4.28;;;2.45;;
66575;SDS011;53428;47.686;16.584;2023-05-10T22:14:00;3.33;;;2.80;;
66575;SDS011;53428;47.686;16.584;2023-05-10T22:18:59;5.15;;;2.55;;
66575;SDS011;53428;47.686;16.584;2023-05-10T22:23:59;3.88;;;2.25;;
66575;SDS011;53428;47.686;16.584;2023-05-10T22:28:58;3.53;;;2.70;;
66575;SDS011;53428;47.686;16.584;2023-05-10T22:33:57;2.50;;;2.28;;
66575;SDS011;53428;47.686;16.584;2023-05-10T22:38:57;4.20;;;2.53;;
66575;SDS011;53428;47.686;16.584;2023-05-10T22:43:56;4.38;;;2.53;;
66575;SDS011;53428;47.686;16.584;2023-05-10T22:48:57;3.83;;;2.83;;
66575;SDS011;53428;47.686;16.584;2023-05-10T22:53:56;3.92;;;2.60;;
66575;SDS011;53428;47.686;16.584;2023-05-10T22:58:56;8.00;;;2.58;;
66575;SDS011;53428;47.686;16.584;2023-05-10T23:03:55;3.05;;;2.20;;
66575;SDS011;53428;47.686;16.584;2023-05-10T23:08:55;3.35;;;2.17;;
66575;SDS011;53428;47.686;16.584;2023-05-10T23:13:54;4.85;;;3.13;;
66575;SDS011;53428;47.686;16.584;2023-05-10T23:18:54;5.57;;;2.38;;
66575;SDS011;53428;47.686;16.584;2023-05-10T23:23:53;5.60;;;2.50;;
66575;SDS011;53428;47.686;16.584;2023-05-10T23:28:52;5.68;;;2.47;;
66575;SDS011;53428;47.686;16.584;2023-05-10T23:33:52;7.03;;;2.55;;
66575;SDS011;53428;47.686;16.584;2023-05-10T23:38:52;3.42;;;2.47;;
66575;SDS011;53428;47.686;16.584;2023-05-10T23:43:52;6.10;;;3.35;;
66575;SDS011;53428;47.686;16.584;2023-05-10T23:48:51;7.88;;;2.90;;
66575;SDS011;53428;47.686;16.584;2023-05-10T23:53:51;7.72;;;3.15;;
66575;SDS011;53428;47.686;16.584;2023-05-10T23:58:50;10.02;;;2.85;;
